Time;durP1;ratioP1;P1;durP2;ratioP2;P2;SDS_P1;SDS_P2;PMS_P1;PMS_P2;Temp;Humidity;BMP_temperature;BMP_pressure;BME280_temperature;BME280_humidity;BME280_pressure;Samples;Min_cycle;Max_cycle;Signal;HPM_P1;HPM_P2
2023/01/21 00:01:53;;;;;;;79.10;44.03;;;;;;;-2.18;100.00;160008.78;5037102;28;20439;-61
2023/01/21 00:04:19;;;;;;;79.50;41.95;;;;;;;-2.35;100.00;159963.28;5047380;28;20092;-61
2023/01/21 00:06:44;;;;;;;70.38;41.83;;;;;;;-2.27;100.00;159986.03;5051222;28;20044;-61
2023/01/21 00:09:10;;;;;;;73.07;41.95;;;;;;;-2.35;100.00;159964.66;5052226;28;20045;-61
2023/01/21 00:11:35;;;;;;;77.97;49.10;;;;;;;-2.34;100.00;159967.28;5050650;28;20041;-61
2023/01/21 00:14:01;;;;;;;75.70;49.25;;;;;;;-2.35;100.00;159964.66;5056352;28;20024;-61
2023/01/21 00:16:26;;;;;;;75.47;48.42;;;;;;;-2.37;100.00;159959.28;5071293;28;20048;-61
2023/01/21 00:18:51;;;;;;;81.00;44.17;;;;;;;-2.36;100.00;159961.97;5052159;28;20027;-61
2023/01/21 00:21:17;;;;;;;77.20;46.45;;;;;;;-2.41;100.00;159948.56;5053740;28;20048;-61
2023/01/21 00:23:44;;;;;;;80.07;51.15;;;;;;;-2.42;100.00;159945.94;5044153;28;20022;-61
2023/01/21 00:26:10;;;;;;;86.63;55.92;;;;;;;-2.43;100.00;159943.25;5031707;28;20042;-61
2023/01/21 00:28:37;;;;;;;76.90;51.58;;;;;;;-2.44;100.00;159940.56;5056348;28;20081;-61
2023/01/21 00:31:04;;;;;;;79.80;51.50;;;;;;;-2.41;100.00;159948.56;5056514;28;20102;-61
2023/01/21 00:33:30;;;;;;;84.75;51.42;;;;;;;-2.39;100.00;159953.94;5046374;28;20042;-61
2023/01/21 00:35:58;;;;;;;74.55;44.28;;;;;;;-2.40;100.00;159951.25;5054062;28;20040;-61
2023/01/21 00:38:23;;;;;;;83.70;49.85;;;;;;;-2.37;100.00;159959.28;5053664;28;20024;-61
2023/01/21 00:40:48;;;;;;;81.43;46.83;;;;;;;-2.37;100.00;159957.94;5051384;28;20037;-63
2023/01/21 00:43:14;;;;;;;80.55;50.08;;;;;;;-2.41;100.00;159949.94;5051721;28;20016;-64
2023/01/21 00:45:40;;;;;;;87.53;51.33;;;;;;;-2.50;100.00;159924.53;5051369;28;20045;-65
2023/01/21 00:48:05;;;;;;;82.28;45.22;;;;;;;-2.47;100.00;159932.53;5052427;28;20094;-66
2023/01/21 00:50:30;;;;;;;75.65;44.35;;;;;;;-2.55;100.00;159913.78;5055967;28;20048;-66
2023/01/21 00:52:56;;;;;;;85.80;48.35;;;;;;;-2.56;100.00;159911.13;5054691;28;20546;-66
2023/01/21 00:55:21;;;;;;;84.93;46.65;;;;;;;-2.58;100.00;159905.81;5050918;28;20460;-66
2023/01/21 00:57:46;;;;;;;75.72;46.72;;;;;;;-2.59;100.00;159903.13;5052003;28;20025;-66
2023/01/21 01:00:13;;;;;;;77.72;46.53;;;;;;;-2.60;100.00;159899.06;5050873;28;20040;-66
2023/01/21 01:02:39;;;;;;;83.75;49.67;;;;;;;-2.58;100.00;159905.81;5052390;28;20014;-66
2023/01/21 01:05:07;;;;;;;92.47;51.92;;;;;;;-2.61;100.00;159896.44;5054314;28;20502;-65
2023/01/21 01:07:32;;;;;;;79.80;51.40;;;;;;;-2.68;100.00;159879.03;5063972;28;20053;-66
2023/01/21 01:09:57;;;;;;;82.22;50.45;;;;;;;-2.66;100.00;159883.03;5052179;28;20498;-68
2023/01/21 01:12:23;;;;;;;88.72;52.53;;;;;;;-2.67;100.00;159881.72;5030773;28;20042;-67
2023/01/21 01:14:48;;;;;;;76.75;48.05;;;;;;;-2.68;100.00;159879.03;5032191;28;20357;-66
2023/01/21 01:17:14;;;;;;;86.30;55.40;;;;;;;-2.68;100.00;159879.03;5048363;28;20037;-66
2023/01/21 01:19:39;;;;;;;80.80;51.25;;;;;;;-2.72;100.00;159869.66;5051971;28;20025;-66
2023/01/21 01:22:04;;;;;;;91.65;49.22;;;;;;;-2.71;100.00;159871.00;5050669;28;20033;-66
2023/01/21 01:24:30;;;;;;;86.57;49.65;;;;;;;-2.73;100.00;159865.69;5071784;28;20606;-66
2023/01/21 01:26:55;;;;;;;112.60;55.45;;;;;;;-2.73;100.00;159865.69;5067279;28;20040;-66
2023/01/21 01:29:21;;;;;;;102.95;55.13;;;;;;;-2.72;100.00;159868.34;5051720;28;20070;-66
2023/01/21 01:31:46;;;;;;;84.05;54.13;;;;;;;-2.75;100.00;159860.31;5035512;28;20045;-66
2023/01/21 01:34:11;;;;;;;87.35;53.88;;;;;;;-2.72;100.00;159868.34;5033595;28;20025;-66
2023/01/21 01:36:37;;;;;;;99.18;56.20;;;;;;;-2.72;100.00;159868.34;5050363;28;20113;-66
2023/01/21 01:39:03;;;;;;;93.38;56.28;;;;;;;-2.73;100.00;159865.69;5052631;28;20051;-66
2023/01/21 01:41:31;;;;;;;93.28;53.67;;;;;;;-2.74;100.00;159863.00;5049591;28;20041;-66
2023/01/21 01:44:03;;;;;;;65.35;38.20;;;;;;;-2.81;100.00;159844.28;5051728;28;20032;-66
2023/01/21 01:46:34;;;;;;;98.72;50.72;;;;;;;-2.76;100.00;159857.63;5049678;28;20067;-66
2023/01/21 01:49:08;;;;;;;90.63;48.75;;;;;;;-2.80;100.00;159846.97;5051248;28;20383;-66
2023/01/21 01:51:44;;;;;;;92.28;53.40;;;;;;;-2.77;100.00;159854.94;5050047;28;20033;-66
2023/01/21 01:54:12;;;;;;;89.50;55.22;;;;;;;-2.76;100.00;159857.63;5051730;28;20077;-66
2023/01/21 01:56:38;;;;;;;89.78;53.10;;;;;;;-2.75;100.00;159860.31;5049163;28;20041;-66
2023/01/21 01:59:04;;;;;;;93.35;50.15;;;;;;;-2.75;100.00;159860.31;5051180;28;20033;-66
2023/01/21 02:01:29;;;;;;;88.30;52.35;;;;;;;-2.75;100.00;159860.31;5049795;28;20431;-66
2023/01/21 02:03:58;;;;;;;92.50;53.10;;;;;;;-2.76;100.00;159859.00;5050157;28;20032;-66
2023/01/21 02:06:24;;;;;;;101.28;50.38;;;;;;;-2.73;100.00;159867.00;5049316;28;20403;-66
2023/01/21 02:08:50;;;;;;;102.72;55.75;;;;;;;-2.72;100.00;159868.34;5051040;28;20040;-66
2023/01/21 02:11:17;;;;;;;94.90;51.90;;;;;;;-2.75;100.00;159860.31;5048800;28;20083;-66
2023/01/21 02:13:47;;;;;;;87.07;49.53;;;;;;;-2.76;100.00;159857.63;5051109;28;20021;-66
2023/01/21 02:16:28;;;;;;;86.55;47.90;;;;;;;-2.77;100.00;159854.94;5049211;28;20041;-66
2023/01/21 02:19:31;;;;;;;89.25;51.40;;;;;;;-2.80;100.00;159846.97;5030626;28;20029;-66
2023/01/21 02:22:28;;;;;;;101.40;51.15;;;;;;;-2.84;100.00;159836.22;4993140;28;20044;-67
2023/01/21 02:25:28;;;;;;;93.70;53.05;;;;;;;-2.83;100.00;159838.91;5031065;28;20030;-66
2023/01/21 02:28:31;;;;;;;96.40;52.10;;;;;;;-2.89;100.00;159825.56;5042311;28;20052;-66
2023/01/21 02:31:25;;;;;;;91.78;49.63;;;;;;;-2.94;100.00;159812.16;5049510;28;20435;-66
2023/01/21 02:33:56;;;;;;;95.75;50.50;;;;;;;-2.94;100.00;159812.16;5050458;28;20028;-66
2023/01/21 02:36:33;;;;;;;101.85;49.53;;;;;;;-2.96;100.00;159806.84;5050791;28;20098;-66
2023/01/21 02:39:35;;;;;;;88.28;45.92;;;;;;;-2.99;100.00;159798.78;5038142;28;20547;-66
2023/01/21 02:42:21;;;;;;;93.28;47.92;;;;;;;-3.09;100.00;159773.41;5048979;28;20102;-66
2023/01/21 02:44:55;;;;;;;103.28;50.60;;;;;;;-3.20;100.00;159745.31;5050873;28;20029;-63
2023/01/21 02:47:44;;;;;;;96.60;54.25;;;;;;;-3.29;100.00;159721.25;5036908;28;20036;-63
2023/01/21 02:50:31;;;;;;;100.40;52.30;;;;;;;-3.30;100.00;159718.56;5049042;28;20115;-65
2023/01/21 02:52:58;;;;;;;92.25;45.28;;;;;;;-3.34;100.00;159707.91;5050613;28;20108;-65
2023/01/21 02:55:30;;;;;;;97.95;54.50;;;;;;;-3.29;100.00;159721.25;5048760;28;20037;-65
2023/01/21 02:58:00;;;;;;;111.38;56.25;;;;;;;-3.25;100.00;159731.97;5051452;28;20048;-65
2023/01/21 03:00:35;;;;;;;97.68;52.08;;;;;;;-3.25;100.00;159731.97;5029046;28;20037;-65
2023/01/21 03:03:35;;;;;;;93.55;52.17;;;;;;;-3.30;100.00;159718.56;5033547;28;20041;-65
2023/01/21 03:06:19;;;;;;;102.32;52.88;;;;;;;-3.35;100.00;159705.22;5049178;28;20037;-65
2023/01/21 03:08:51;;;;;;;109.43;51.05;;;;;;;-3.26;100.00;159729.28;5050027;28;20133;-65
2023/01/21 03:11:19;;;;;;;119.10;60.05;;;;;;;-3.26;100.00;159729.28;5048732;28;20438;-65
2023/01/21 03:16:57;;;;;;;101.18;50.88;;;;;;;-3.28;100.00;159723.94;5048725;28;20079;-65
2023/01/21 03:19:38;;;;;;;104.28;52.78;;;;;;;-3.32;100.00;159713.25;5029840;28;20039;-65
2023/01/21 03:22:09;;;;;;;104.28;53.45;;;;;;;-3.36;100.00;159703.91;5035419;28;20175;-65
2023/01/21 03:24:38;;;;;;;99.80;49.90;;;;;;;-3.38;100.00;159697.19;5049087;28;20100;-65
2023/01/21 03:27:05;;;;;;;114.97;52.67;;;;;;;-3.40;100.00;159691.88;5048227;28;20044;-65
2023/01/21 03:29:33;;;;;;;110.60;52.05;;;;;;;-3.30;100.00;159718.56;5049845;28;20032;-65
2023/01/21 03:32:03;;;;;;;105.35;52.65;;;;;;;-3.30;100.00;159718.56;5048916;28;20423;-65
2023/01/21 03:34:33;;;;;;;107.32;53.22;;;;;;;-3.33;100.00;159710.59;5049880;28;20082;-65
2023/01/21 03:37:14;;;;;;;99.32;52.05;;;;;;;-3.39;100.00;159694.53;5048520;28;20135;-65
2023/01/21 03:40:18;;;;;;;117.25;53.63;;;;;;;-3.44;100.00;159682.50;5050207;28;20020;-65
2023/01/21 03:42:46;;;;;;;119.97;54.40;;;;;;;-3.42;100.00;159686.50;5048709;28;20120;-66
2023/01/21 03:45:13;;;;;;;108.10;57.20;;;;;;;-3.55;100.00;159654.44;5048622;28;20028;-65
2023/01/21 03:47:44;;;;;;;114.47;50.90;;;;;;;-3.47;100.00;159673.16;5049630;28;20116;-65
2023/01/21 03:50:15;;;;;;;108.85;57.63;;;;;;;-3.48;100.00;159671.78;5048602;28;20487;-65
2023/01/21 03:52:42;;;;;;;108.72;53.15;;;;;;;-3.46;100.00;159677.16;5050061;28;20056;-65
2023/01/21 03:55:12;;;;;;;125.93;61.60;;;;;;;-3.41;100.00;159689.19;5051427;28;20032;-64
2023/01/21 03:57:38;;;;;;;118.88;61.80;;;;;;;-3.43;100.00;159683.81;5053378;28;20083;-64
2023/01/21 04:00:05;;;;;;;134.27;55.53;;;;;;;-3.46;100.00;159675.84;5052081;28;20033;-61
2023/01/21 04:02:30;;;;;;;107.07;58.25;;;;;;;-3.42;100.00;159686.50;5052722;28;20090;-65
2023/01/21 04:04:55;;;;;;;108.03;56.83;;;;;;;-3.47;100.00;159673.16;5053647;28;20534;-65
2023/01/21 04:07:21;;;;;;;117.05;55.90;;;;;;;-3.41;100.00;159690.50;5051341;28;20532;-64
2023/01/21 04:09:48;;;;;;;113.00;55.17;;;;;;;-3.48;100.00;159670.47;5053287;28;20017;-65
2023/01/21 04:12:14;;;;;;;100.95;57.47;;;;;;;-3.48;100.00;159670.47;5051530;28;20048;-65
2023/01/21 04:14:39;;;;;;;111.00;56.72;;;;;;;-3.46;100.00;159677.16;5053256;28;20077;-65
2023/01/21 04:17:05;;;;;;;103.40;54.35;;;;;;;-3.41;100.00;159689.19;5051251;28;20040;-65
2023/01/21 04:19:30;;;;;;;123.45;56.45;;;;;;;-3.44;100.00;159682.50;5053217;28;20032;-66
2023/01/21 04:21:56;;;;;;;105.70;50.33;;;;;;;-3.45;100.00;159678.47;5051949;28;20037;-66
2023/01/21 04:24:21;;;;;;;102.43;50.58;;;;;;;-3.46;100.00;159675.84;5052784;28;20028;-66
2023/01/21 04:26:46;;;;;;;111.55;53.05;;;;;;;-3.47;100.00;159673.16;5051427;28;20040;-65
2023/01/21 04:29:12;;;;;;;103.13;53.42;;;;;;;-3.49;100.00;159667.78;5052859;28;20029;-66
2023/01/21 04:31:37;;;;;;;106.10;50.92;;;;;;;-3.56;100.00;159650.41;5051281;28;20040;-66
2023/01/21 04:34:02;;;;;;;123.40;53.63;;;;;;;-3.53;100.00;159659.75;5052724;28;20025;-65
2023/01/21 04:36:28;;;;;;;103.22;51.00;;;;;;;-3.58;100.00;159646.41;5050838;28;20049;-65
2023/01/21 04:38:53;;;;;;;104.05;53.33;;;;;;;-3.59;100.00;159643.72;5053067;28;20379;-65
2023/01/21 04:41:18;;;;;;;120.47;52.72;;;;;;;-3.60;100.00;159641.03;5050853;28;20037;-65
2023/01/21 04:43:44;;;;;;;115.53;54.10;;;;;;;-3.57;100.00;159649.09;5052733;28;20028;-65
2023/01/21 04:46:09;;;;;;;118.13;58.72;;;;;;;-3.55;100.00;159654.44;5051137;28;20045;-63
2023/01/21 04:48:35;;;;;;;126.07;56.63;;;;;;;-3.49;100.00;159667.78;5052592;28;20036;-63
2023/01/21 04:51:00;;;;;;;104.13;52.60;;;;;;;-3.39;100.00;159694.53;5051316;28;20033;-63
2023/01/21 04:53:25;;;;;;;113.20;56.70;;;;;;;-3.28;100.00;159723.94;5052195;28;20029;-63
2023/01/21 04:55:51;;;;;;;143.73;65.60;;;;;;;-3.22;100.00;159739.97;5050326;28;20063;-63
2023/01/21 04:58:17;;;;;;;137.50;65.28;;;;;;;-3.11;100.00;159766.72;5052147;28;20029;-63
2023/01/21 05:00:42;;;;;;;145.00;69.10;;;;;;;-3.01;100.00;159793.44;5051143;28;20098;-63
2023/01/21 05:03:07;;;;;;;145.50;70.40;;;;;;;-2.89;100.00;159824.19;5052168;28;20029;-63
2023/01/21 05:05:33;;;;;;;159.77;77.82;;;;;;;-2.81;100.00;159844.28;5049455;28;20045;-65
2023/01/21 05:07:58;;;;;;;155.55;73.38;;;;;;;-2.72;100.00;159869.66;5052155;28;20526;-64
2023/01/21 05:10:24;;;;;;;176.73;82.35;;;;;;;-2.67;100.00;159881.72;5050178;28;20144;-64
2023/01/21 05:12:49;;;;;;;148.25;72.22;;;;;;;-2.55;100.00;159913.78;5052192;28;20021;-65
2023/01/21 05:15:14;;;;;;;162.85;62.92;;;;;;;-2.49;100.00;159927.16;5049786;28;20029;-64
2023/01/21 05:17:40;;;;;;;150.65;64.78;;;;;;;-2.45;100.00;159937.88;5052020;28;20029;-64
2023/01/21 05:20:05;;;;;;;160.07;61.15;;;;;;;-2.40;100.00;159952.63;5050775;28;20043;-64
2023/01/21 05:22:31;;;;;;;155.85;66.35;;;;;;;-2.40;100.00;159952.63;5051765;28;20025;-64
2023/01/21 05:24:58;;;;;;;157.25;67.18;;;;;;;-2.32;100.00;159972.66;5051486;28;20016;-64
2023/01/21 05:27:23;;;;;;;145.45;64.07;;;;;;;-2.24;100.00;159994.06;5050011;28;20123;-64
2023/01/21 05:29:49;;;;;;;152.38;62.92;;;;;;;-2.20;100.00;160002.13;5052018;28;20028;-64
2023/01/21 05:32:14;;;;;;;134.43;62.50;;;;;;;-2.13;100.00;160020.84;5049793;28;20044;-64
2023/01/21 05:34:39;;;;;;;155.75;66.72;;;;;;;-2.09;100.00;160031.53;5051540;28;20442;-64
2023/01/21 05:37:05;;;;;;;157.95;64.82;;;;;;;-2.09;100.00;160031.53;5050377;28;20045;-65
2023/01/21 05:39:30;;;;;;;129.30;60.50;;;;;;;-1.96;100.00;160066.31;5051285;28;20035;-64
2023/01/21 05:41:55;;;;;;;144.07;63.92;;;;;;;-1.95;100.00;160069.00;5050124;28;20036;-64
2023/01/21 05:44:21;;;;;;;141.13;67.57;;;;;;;-1.83;100.00;160099.78;5050990;28;20017;-65
2023/01/21 05:46:46;;;;;;;127.82;61.80;;;;;;;-1.75;100.00;160119.88;5049732;28;20510;-65
2023/01/21 05:49:12;;;;;;;131.23;63.25;;;;;;;-1.70;100.00;160133.25;5051261;28;20039;-65
2023/01/21 05:51:37;;;;;;;130.35;62.70;;;;;;;-1.72;100.00;160126.56;5059558;28;20044;-63
2023/01/21 05:54:02;;;;;;;145.05;64.00;;;;;;;-1.65;100.00;160146.63;5070626;28;20371;-64
2023/01/21 05:56:28;;;;;;;126.60;59.45;;;;;;;-1.66;100.00;160143.94;5049068;28;20053;-65
2023/01/21 05:58:53;;;;;;;129.80;67.88;;;;;;;-1.66;100.00;160143.94;5051439;28;20021;-65
2023/01/21 06:01:18;;;;;;;118.15;59.28;;;;;;;-1.63;100.00;160151.97;5048971;28;20402;-65
2023/01/21 06:03:44;;;;;;;129.25;62.13;;;;;;;-1.70;100.00;160131.88;5050995;28;20025;-65
2023/01/21 06:06:09;;;;;;;133.70;64.35;;;;;;;-1.60;100.00;160158.66;5048929;28;20056;-65
2023/01/21 06:08:34;;;;;;;121.68;63.72;;;;;;;-1.55;100.00;160170.72;5050402;28;20045;-65
2023/01/21 06:11:00;;;;;;;107.05;57.28;;;;;;;-1.50;100.00;160184.09;5049647;28;20055;-65
2023/01/21 06:13:25;;;;;;;123.82;62.55;;;;;;;-1.53;100.00;160176.09;5050858;28;20021;-65
2023/01/21 06:15:53;;;;;;;108.00;59.80;;;;;;;-1.54;100.00;160173.41;5048941;28;20416;-65
2023/01/21 06:18:19;;;;;;;114.05;57.33;;;;;;;-1.54;100.00;160174.72;5066710;28;20032;-65
2023/01/21 06:20:44;;;;;;;114.15;55.75;;;;;;;-1.51;100.00;160181.41;5069571;28;20036;-65
2023/01/21 06:23:09;;;;;;;107.45;51.72;;;;;;;-1.55;100.00;160170.72;5070582;28;20027;-64
2023/01/21 06:25:35;;;;;;;112.65;59.58;;;;;;;-1.48;100.00;160190.78;5052409;28;20431;-63
2023/01/21 06:28:00;;;;;;;120.97;61.20;;;;;;;-1.48;100.00;160189.47;5050455;28;20032;-62
2023/01/21 06:30:26;;;;;;;96.60;55.80;;;;;;;-1.45;100.00;160198.81;5051770;28;20094;-64
2023/01/21 06:32:51;;;;;;;103.32;54.72;;;;;;;-1.48;100.00;160190.78;5050799;28;20395;-64
2023/01/21 06:35:17;;;;;;;100.65;51.53;;;;;;;-1.49;100.00;160188.09;5042552;28;20365;-64
2023/01/21 06:37:46;;;;;;;101.90;55.65;;;;;;;-1.49;100.00;160186.78;5050690;28;20017;-64
2023/01/21 06:40:12;;;;;;;98.80;54.85;;;;;;;-1.46;100.00;160194.81;5056504;28;20024;-65
2023/01/21 06:42:38;;;;;;;98.57;53.78;;;;;;;-1.41;100.00;160208.19;5054388;28;20024;-63
2023/01/21 06:45:04;;;;;;;103.15;55.78;;;;;;;-1.43;100.00;160202.81;5049081;28;20029;-57
2023/01/21 06:47:29;;;;;;;99.25;58.78;;;;;;;-1.35;100.00;160224.25;5030696;28;20017;-63
2023/01/21 06:49:54;;;;;;;85.70;51.65;;;;;;;-1.40;100.00;160209.50;5030823;28;20025;-63
2023/01/21 06:52:20;;;;;;;92.63;52.25;;;;;;;-1.42;100.00;160204.19;5047606;28;20060;-63
2023/01/21 06:54:47;;;;;;;106.43;57.28;;;;;;;-1.37;100.00;160218.88;5050262;28;20025;-63
2023/01/21 06:57:12;;;;;;;92.57;55.10;;;;;;;-1.39;100.00;160213.56;5048382;28;20102;-64
2023/01/21 06:59:38;;;;;;;101.65;56.25;;;;;;;-1.36;100.00;160221.56;5049886;28;20418;-64
2023/01/21 07:02:03;;;;;;;101.85;54.35;;;;;;;-1.35;100.00;160224.25;5049072;28;20099;-64
2023/01/21 07:04:29;;;;;;;97.82;51.28;;;;;;;-1.40;100.00;160210.88;5050099;28;20395;-65
2023/01/21 07:06:54;;;;;;;102.13;55.97;;;;;;;-1.34;100.00;160226.94;5060141;28;20101;-63
2023/01/21 07:09:19;;;;;;;93.95;50.80;;;;;;;-1.35;100.00;160224.25;5068826;28;20044;-62
2023/01/21 07:11:45;;;;;;;89.20;50.97;;;;;;;-1.28;100.00;160243.00;5069069;28;20102;-63
2023/01/21 07:14:10;;;;;;;90.60;51.38;;;;;;;-1.23;100.00;160253.72;5062775;28;20025;-63
2023/01/21 07:16:36;;;;;;;96.00;52.63;;;;;;;-1.16;100.00;160272.47;5052762;28;20044;-63
2023/01/21 07:19:02;;;;;;;102.88;49.95;;;;;;;-1.22;100.00;160256.38;5066569;28;20036;-63
2023/01/21 07:21:27;;;;;;;82.63;50.08;;;;;;;-1.22;100.00;160256.38;5048613;28;20051;-63
2023/01/21 07:23:53;;;;;;;92.45;48.60;;;;;;;-1.34;100.00;160226.94;5049383;28;20492;-63
2023/01/21 07:26:19;;;;;;;89.95;51.15;;;;;;;-1.22;100.00;160256.38;5058675;28;20037;-63
2023/01/21 07:28:44;;;;;;;88.18;53.58;;;;;;;-1.17;100.00;160269.78;5049663;28;20025;-62
2023/01/21 07:31:09;;;;;;;81.75;46.67;;;;;;;-1.17;100.00;160269.78;5041959;28;20085;-62
2023/01/21 07:33:35;;;;;;;74.95;47.10;;;;;;;-1.19;100.00;160264.41;5033094;28;20029;-63
2023/01/21 07:36:00;;;;;;;87.97;49.63;;;;;;;-1.25;100.00;160249.69;5039217;28;20041;-63
2023/01/21 07:38:25;;;;;;;79.13;46.97;;;;;;;-1.23;100.00;160253.72;5050655;28;20438;-62
2023/01/21 07:40:51;;;;;;;74.57;44.53;;;;;;;-1.19;100.00;160264.41;5052213;28;20048;-62
2023/01/21 07:43:16;;;;;;;73.32;40.80;;;;;;;-1.15;100.00;160275.09;5052998;28;20036;-62
2023/01/21 07:45:42;;;;;;;70.85;44.00;;;;;;;-1.18;100.00;160267.09;5051786;28;20443;-64
2023/01/21 07:48:07;;;;;;;75.60;44.25;;;;;;;-1.28;100.00;160243.00;5069792;28;20020;-63
2023/01/21 07:50:33;;;;;;;75.97;43.63;;;;;;;-1.31;100.00;160235.00;5072037;28;20045;-63
2023/01/21 07:52:59;;;;;;;72.85;43.97;;;;;;;-1.32;100.00;160232.31;5071919;28;20024;-64
2023/01/21 07:55:25;;;;;;;81.47;46.53;;;;;;;-1.29;100.00;160240.31;5054462;28;20048;-63
2023/01/21 07:57:50;;;;;;;87.63;51.35;;;;;;;-1.25;100.00;160248.38;5052973;28;20067;-63
2023/01/21 08:00:16;;;;;;;82.57;50.22;;;;;;;-1.25;100.00;160248.38;5050792;28;20052;-63
2023/01/21 08:02:42;;;;;;;86.18;45.15;;;;;;;-1.25;100.00;160248.38;5053551;28;20116;-63
2023/01/21 08:05:08;;;;;;;75.93;45.53;;;;;;;-1.16;100.00;160272.47;5051647;28;20442;-63
2023/01/21 08:07:34;;;;;;;80.05;48.38;;;;;;;-1.14;100.00;160277.78;5050423;28;20587;-63
2023/01/21 08:09:59;;;;;;;87.93;52.42;;;;;;;-1.07;100.00;160296.53;5052443;28;20025;-63
2023/01/21 08:12:25;;;;;;;83.13;47.45;;;;;;;-1.03;100.00;160305.91;5044765;28;20041;-63
2023/01/21 08:14:50;;;;;;;85.45;49.95;;;;;;;-0.99;100.00;160316.66;5051028;28;20098;-64
2023/01/21 08:17:16;;;;;;;81.72;48.10;;;;;;;-0.96;100.00;160326.03;5051596;28;20393;-64
2023/01/21 08:19:41;;;;;;;96.05;53.42;;;;;;;-0.94;100.00;160330.03;5052265;28;20041;-64
2023/01/21 08:22:06;;;;;;;78.25;45.00;;;;;;;-0.98;100.00;160320.66;5050082;28;20044;-64
2023/01/21 08:24:32;;;;;;;83.45;47.03;;;;;;;-0.92;100.00;160334.03;5048451;28;20028;-64
2023/01/21 08:26:58;;;;;;;82.75;50.17;;;;;;;-1.03;100.00;160305.91;5036836;28;20132;-64
2023/01/21 08:29:24;;;;;;;73.05;44.40;;;;;;;-0.92;100.00;160334.03;5045763;28;20021;-64
2023/01/21 08:31:49;;;;;;;66.78;42.88;;;;;;;-0.92;100.00;160335.41;5037324;28;20185;-64
2023/01/21 08:34:15;;;;;;;74.00;42.83;;;;;;;-0.94;100.00;160328.72;5030619;28;20021;-64
2023/01/21 08:36:40;;;;;;;69.60;41.28;;;;;;;-0.93;100.00;160331.41;5043951;28;20040;-64
2023/01/21 08:39:06;;;;;;;69.53;40.85;;;;;;;-0.89;100.00;160342.09;5051952;28;20024;-64
2023/01/21 08:41:32;;;;;;;82.70;45.15;;;;;;;-0.92;100.00;160334.03;5046488;28;20377;-64
2023/01/21 08:43:57;;;;;;;69.43;40.90;;;;;;;-0.90;100.00;160340.75;5049104;28;20396;-64
2023/01/21 08:46:23;;;;;;;72.13;41.20;;;;;;;-0.93;100.00;160332.72;5050723;28;20049;-64
2023/01/21 08:48:48;;;;;;;65.18;40.28;;;;;;;-0.93;100.00;160331.41;5052156;28;20082;-64
2023/01/21 08:51:13;;;;;;;76.97;45.88;;;;;;;-0.97;100.00;160323.34;5050127;28;20045;-64
2023/01/21 08:53:39;;;;;;;70.47;41.58;;;;;;;-0.92;100.00;160335.41;5051578;28;20051;-64
2023/01/21 08:56:04;;;;;;;68.80;43.38;;;;;;;-0.92;100.00;160334.03;5049292;28;20067;-64
2023/01/21 08:58:31;;;;;;;73.70;42.08;;;;;;;-0.91;100.00;160336.72;5050134;28;20063;-64
2023/01/21 09:00:57;;;;;;;68.90;45.03;;;;;;;-0.86;100.00;160350.16;5041919;28;20041;-64
2023/01/21 09:03:22;;;;;;;71.07;39.55;;;;;;;-0.84;100.00;160356.81;5031426;28;20075;-64
2023/01/21 09:05:50;;;;;;;82.70;47.53;;;;;;;-0.86;100.00;160350.16;5048386;28;20504;-64
2023/01/21 09:08:16;;;;;;;87.38;45.58;;;;;;;-0.79;100.00;160368.88;5030442;28;20057;-64
2023/01/21 09:11:00;;;;;;;67.30;42.22;;;;;;;-0.78;100.00;160371.53;5046431;28;20071;-64
2023/01/21 09:13:34;;;;;;;67.15;38.65;;;;;;;-0.73;100.00;160383.59;5051639;28;20027;-64
2023/01/21 09:16:00;;;;;;;72.78;39.22;;;;;;;-0.62;100.00;160411.72;5067726;28;20047;-64
2023/01/21 09:18:26;;;;;;;71.65;40.30;;;;;;;-0.62;100.00;160413.06;5067873;28;20021;-64
2023/01/21 09:20:51;;;;;;;70.68;40.92;;;;;;;-0.66;100.00;160403.69;5050534;28;20044;-64
2023/01/21 09:23:23;;;;;;;70.38;39.30;;;;;;;-0.65;100.00;160406.38;5051871;28;20100;-64
2023/01/21 09:25:49;;;;;;;68.00;39.33;;;;;;;-0.65;100.00;160405.03;5030733;28;20045;-64
2023/01/21 09:28:15;;;;;;;78.00;46.05;;;;;;;-0.69;100.00;160395.66;5031821;28;20074;-64
2023/01/21 09:30:40;;;;;;;60.85;40.78;;;;;;;-0.68;100.00;160397.00;5037113;28;20045;-64
2023/01/21 09:33:06;;;;;;;73.90;43.63;;;;;;;-0.60;100.00;160417.09;5050744;28;20468;-64
2023/01/21 09:35:31;;;;;;;72.93;40.90;;;;;;;-0.57;100.00;160425.13;5050926;28;20408;-64
2023/01/21 09:37:56;;;;;;;75.93;43.92;;;;;;;-0.60;100.00;160417.09;5052611;28;20029;-64
2023/01/21 09:40:22;;;;;;;65.63;40.45;;;;;;;-0.65;100.00;160406.38;5049912;28;20036;-64
2023/01/21 09:42:47;;;;;;;64.13;36.95;;;;;;;-0.64;100.00;160407.72;5053402;28;20074;-64
2023/01/21 09:45:14;;;;;;;69.32;41.65;;;;;;;-0.69;100.00;160395.66;5050482;28;20388;-63
2023/01/21 09:47:42;;;;;;;72.72;42.78;;;;;;;-0.66;100.00;160402.34;5051690;28;20020;-64
2023/01/21 09:50:20;;;;;;;65.45;39.63;;;;;;;-0.62;100.00;160411.72;5048981;28;20029;-64
2023/01/21 09:52:50;;;;;;;74.78;42.63;;;;;;;-0.51;100.00;160441.22;5050523;28;20025;-64
2023/01/21 09:55:16;;;;;;;71.03;42.33;;;;;;;-0.50;100.00;160443.91;5048791;28;20384;-64
2023/01/21 09:57:53;;;;;;;61.30;38.92;;;;;;;-0.50;100.00;160445.22;5049082;28;20036;-64
2023/01/21 10:00:37;;;;;;;66.53;40.13;;;;;;;-0.51;100.00;160441.22;5047941;28;20037;-64
2023/01/21 10:03:27;;;;;;;59.15;38.17;;;;;;;-0.48;100.00;160449.22;5047806;28;20025;-64
2023/01/21 10:06:15;;;;;;;71.75;41.65;;;;;;;-0.40;100.00;160469.34;5055281;28;20055;-64
2023/01/21 10:09:21;;;;;;;65.83;41.03;;;;;;;-0.33;100.00;160488.09;5051268;28;20244;-64
2023/01/21 10:12:11;;;;;;;66.00;41.28;;;;;;;-0.23;100.00;160513.53;5047897;28;20037;-64
2023/01/21 10:14:46;;;;;;;68.45;43.50;;;;;;;-0.12;100.00;160543.03;5045715;28;20029;-65
2023/01/21 10:17:30;;;;;;;75.07;38.33;;;;;;;0.07;100.00;160591.25;5044905;28;20052;-64
2023/01/21 10:20:10;;;;;;;69.07;41.35;;;;;;;0.26;100.00;160642.16;5050369;28;20029;-64
2023/01/21 10:22:37;;;;;;;68.80;42.30;;;;;;;0.42;100.00;160683.75;5045381;28;20038;-65
2023/01/21 10:25:17;;;;;;;60.45;40.20;;;;;;;0.72;100.00;160761.50;5048464;28;20214;-64
2023/01/21 10:27:44;;;;;;;59.20;38.70;;;;;;;0.88;100.00;160803.06;5048356;28;20504;-64
2023/01/21 10:30:28;;;;;;;58.90;38.53;;;;;;;1.21;100.00;160888.91;5048212;28;20113;-64
2023/01/21 10:32:54;;;;;;;52.15;37.97;;;;;;;1.34;100.00;160921.09;5050212;28;20028;-64
2023/01/21 10:35:37;;;;;;;56.35;41.30;;;;;;;1.50;100.00;160964.03;5068172;28;20063;-64
2023/01/21 10:38:17;;;;;;;53.25;39.20;;;;;;;1.81;100.00;161044.53;5049549;28;20029;-64
2023/01/21 10:41:17;;;;;;;55.13;37.10;;;;;;;1.88;100.00;161061.94;5049150;28;20056;-63
2023/01/21 10:43:57;;;;;;;54.72;38.03;;;;;;;1.94;100.00;161078.03;5049353;28;20447;-63
2023/01/21 10:46:38;;;;;;;55.40;36.28;;;;;;;1.93;100.00;161075.41;5049662;28;20076;-63
2023/01/21 10:49:19;;;;;;;50.92;33.17;;;;;;;1.74;100.00;161027.06;5047463;28;20025;-65
2023/01/21 10:51:51;;;;;;;52.15;38.45;;;;;;;1.39;100.00;160934.50;5049252;28;20061;-64
2023/01/21 10:54:22;;;;;;;51.17;33.70;;;;;;;1.22;100.00;160891.59;5047297;28;20029;-64
2023/01/21 10:57:02;;;;;;;49.17;33.72;;;;;;;1.15;100.00;160872.81;5046386;28;20045;-64
2023/01/21 10:59:32;;;;;;;51.22;32.13;;;;;;;1.09;100.00;160856.69;5048849;28;20032;-64
2023/01/21 11:02:12;;;;;;;57.30;34.30;;;;;;;1.07;100.00;160851.38;5047188;28;20080;-64
2023/01/21 11:04:41;;;;;;;65.53;35.75;;;;;;;1.32;100.00;160917.09;5039590;28;20025;-64
2023/01/21 11:07:13;;;;;;;55.28;35.33;;;;;;;1.20;100.00;160884.84;5052847;28;20051;-58
2023/01/21 11:09:42;;;;;;;50.22;33.28;;;;;;;1.13;100.00;160867.44;5058416;28;20460;-64
2023/01/21 11:12:10;;;;;;;48.60;33.30;;;;;;;1.25;100.00;160899.63;5051194;28;20033;-63